Minerva Concert — SVWC — position and weather

sailwx.info

Track history (hours):
 
Tides and Currents Weather Stations Pressure Air Temp Water Temp Dewpoint Dewpoint Depression Visibility Wind Speed Wind Dir Waves Ship Positions

Minerva Concert

Last reported at 2016-May-04 14:32 UTC. Time now 2016-May-04 15:26 UTC.
Position N 57°09' E 007°26'.

Length 241 m; draft 8 m.

Type: Ship. MMSI: 240110000.

Date/timePositionNaut miles runAvg speedWind from/ knotsBaromVisibWave heightAir tempDewpointWater temp
2016-May-04 14:32N 57°09' E 007°26'1514.4
2016-May-04 13:28N 56°58' E 007°07'15513.9
2016-May-04 02:16N 54°31' E 005°35'1113.8
2016-May-04 01:29N 54°24' E 005°21'1313.7
2016-May-04 00:33N 54°17' E 005°03'1413.5
2016-May-03 23:32N 54°08' E 004°45'1313.8
2016-May-03 22:33N 53°56' E 004°36'1413.5
2016-May-03 21:32N 53°46' E 004°20'1413.6
2016-May-03 20:32N 53°37' E 004°01'12513.6
2016-May-03 11:21N 51°44' E 002°33'1315.5
2016-May-03 10:31N 51°35' E 002°19'1414.9
2016-May-03 09:34N 51°22' E 002°10'1514.6
2016-May-03 08:34N 51°10' E 001°55'1515.4
2016-May-03 07:34N 51°02' E 001°35'5613.8
2016-May-03 03:31N 50°24' E 000°29'1414.5
2016-May-03 02:33N 50°21' E 000°08'1414.0
2016-May-03 01:34N 50°18' W 000°13'1313.4
2016-May-03 00:34N 50°14' W 000°33'1312.7
2016-May-02 23:32N 50°10' W 000°52'1212.1
2016-May-02 22:33N 50°07' W 001°11'2612.2
2016-May-02 20:27N 50°00' W 001°49'1313.3
2016-May-02 19:27N 49°57' W 002°09'1414.3
2016-May-02 18:28N 49°53' W 002°30'1314.8
2016-May-02 17:33N 49°50' W 002°50'1514.9
2016-May-02 16:33N 49°42' W 003°11'1514.9
2016-May-02 15:33N 49°35' W 003°31'4615.0
2016-May-02 12:29N 49°12' W 004°32'1415.2
2016-May-02 11:33N 49°05' W 004°51'1515.1
2016-May-02 10:33N 48°57' W 005°11'1514.9
2016-May-02 09:33N 48°49' W 005°30'1313.1
2016-May-02 08:33N 48°39' W 005°43'9613.2
2016-May-02 01:19N 47°15' W 006°48'48711.9
2016-Apr-30 08:13N 39°26' W 009°51'6 9.6
2016-Apr-30 07:33N 39°20' W 009°51'9 9.4
2016-Apr-30 06:34N 39°10' W 009°52'1010.1
2016-Apr-30 05:33N 39°00' W 009°52'1110.5
2016-Apr-30 04:33N 38°50' W 009°52'1111.6
2016-Apr-30 03:33N 38°38' W 009°48'1211.8
2016-Apr-30 02:34N 38°27' W 009°46'1212.4
2016-Apr-30 01:33N 38°15' W 009°42'1212.5
2016-Apr-30 00:34N 38°03' W 009°39'1312.6
2016-Apr-29 23:33N 37°50' W 009°35'1312.6
2016-Apr-29 22:33N 37°38' W 009°32'1312.9
2016-Apr-29 21:34N 37°25' W 009°29'1313.2
2016-Apr-29 20:32N 37°12' W 009°26'1313.1
2016-Apr-29 19:33N 36°60' W 009°22'1312.9
2016-Apr-29 18:32N 36°48' W 009°14'1413.2
2016-Apr-29 17:28N 36°42' W 008°58'4213.6
2016-Apr-29 14:22N 36°30' W 008°08'12614.0
2016-Apr-29 05:23N 35°58' W 005°37'1113.1
2016-Apr-29 04:33N 36°00' W 005°24'23013.5
2016-Apr-28 11:32N 36°60' W 000°48'4414.7
2016-Apr-28 08:33N 37°25' W 000°03'1613.9
2016-Apr-28 07:25N 37°39' E 000°07'13014.0
2016-Apr-27 22:06N 39°29' E 001°37'713.3
2016-Apr-27 21:33N 39°35' E 001°42'1313.0
2016-Apr-27 20:33N 39°44' E 001°53'1313.4
2016-Apr-27 19:33N 39°54' E 002°05'1414.0
2016-Apr-27 18:33N 40°05' E 002°17'1414.1
2016-Apr-27 17:33N 40°15' E 002°30'1414.4
2016-Apr-27 16:33N 40°24' E 002°44'1414.5
2016-Apr-27 15:33N 40°34' E 002°59'1514.5
2016-Apr-27 14:33N 40°43' E 003°13'1514.4
2016-Apr-27 13:32N 40°53' E 003°28'21414.0
2016-Apr-26 22:14N 43°09' E 007°11'1013.0
2016-Apr-26 21:30N 43°15' E 007°22'1412.0
2016-Apr-26 20:21N 43°24' E 007°36'911.6
2016-Apr-26 19:33N 43°30' E 007°46'3611.9
2016-Apr-26 16:33N 43°53' E 008°24'1312.6
2016-Apr-26 15:33N 44°01' E 008°37'1212.1
2016-Apr-26 14:34N 44°09' E 008°50'4 3.9
2016-Apr-26 13:34N 44°11' E 008°54'1 1.4
2016-Apr-26 12:34N 44°10' E 008°53'1 1.0
2016-Apr-26 11:34N 44°09' E 008°51'1 0.9
2016-Apr-26 10:34N 44°10' E 008°51'9 9.3
2016-Apr-26 09:34N 44°19' E 008°46'7 6.8
2016-Apr-26 08:33N 44°25' E 008°50'0 0.3
2016-Apr-26 07:30N 44°25' E 008°50'0 0.0
2016-Apr-26 06:33N 44°25' E 008°50'0 0.0
2016-Apr-26 05:33N 44°25' E 008°50'0 0.0
2016-Apr-26 04:27N 44°25' E 008°50'0 0.0
2016-Apr-26 03:27N 44°25' E 008°50'0 0.0
2016-Apr-26 02:30N 44°25' E 008°50'0 0.0
2016-Apr-26 01:30N 44°25' E 008°50'0 0.0
2016-Apr-26 00:33N 44°25' E 008°50'0 0.0
2016-Apr-25 23:33N 44°25' E 008°50'0 0.0
2016-Apr-25 22:33N 44°25' E 008°50'0 0.0
2016-Apr-25 21:30N 44°25' E 008°50'0 0.0
2016-Apr-25 20:30N 44°25' E 008°50'0 0.0
2016-Apr-25 19:30N 44°25' E 008°50'0 0.0
2016-Apr-25 18:33N 44°25' E 008°50'0 0.0
2016-Apr-25 17:33N 44°25' E 008°50'0 0.0
2016-Apr-25 16:33N 44°25' E 008°50'0 0.0
2016-Apr-25 15:27N 44°25' E 008°50'0 0.0
2016-Apr-25 14:24N 44°25' E 008°50'0 0.0
2016-Apr-25 13:30N 44°25' E 008°50'0 0.0
2016-Apr-25 12:33N 44°25' E 008°50'0 0.0
2016-Apr-25 11:33N 44°25' E 008°50'0 0.0
2016-Apr-25 10:33N 44°25' E 008°50'0 0.0
2016-Apr-25 09:30N 44°25' E 008°50'0 0.0
2016-Apr-25 08:30N 44°25' E 008°50'0 0.0
2016-Apr-25 07:24N 44°25' E 008°50'0 0.0
2016-Apr-25 06:33N 44°25' E 008°50'0 0.0
2016-Apr-25 05:33N 44°25' E 008°50'0 0.0
2016-Apr-25 04:33N 44°25' E 008°50'0 0.0
2016-Apr-25 03:30N 44°25' E 008°50'0 0.0
2016-Apr-25 02:30N 44°25' E 008°50'0 0.0
2016-Apr-25 01:30N 44°25' E 008°50'0 0.0
2016-Apr-24 23:33N 44°25' E 008°50'0 0.0
2016-Apr-24 22:33N 44°25' E 008°50'0 0.0
2016-Apr-24 20:30N 44°25' E 008°50'0 0.0
2016-Apr-24 19:30N 44°25' E 008°50'0 0.0
2016-Apr-24 18:24N 44°25' E 008°50'0 0.0
2016-Apr-24 17:30N 44°25' E 008°50'0 0.0
2016-Apr-24 16:30N 44°25' E 008°50'0 0.0
2016-Apr-24 15:33N 44°25' E 008°50'  
Track history (hours):
 
Tides and Currents Weather Stations Pressure Air Temp Water Temp Dewpoint Dewpoint Depression Visibility Wind Speed Wind Dir Waves Ship Positions

Minerva Concert

Last reported at 2016-May-04 14:32 UTC. Time now 2016-May-04 15:26 UTC.
Position N 57°09' E 007°26'.

Length 241 m; draft 8 m.

Type: Ship. MMSI: 240110000.

Date/timePositionNaut miles runAvg speedWind from/ knotsBaromVisibWave heightAir tempDewpointWater temp
2016-May-04 14:32N 57°09' E 007°26'1514.4
2016-May-04 13:28N 56°58' E 007°07'15513.9
2016-May-04 02:16N 54°31' E 005°35'1113.8
2016-May-04 01:29N 54°24' E 005°21'1313.7
2016-May-04 00:33N 54°17' E 005°03'1413.5
2016-May-03 23:32N 54°08' E 004°45'1313.8
2016-May-03 22:33N 53°56' E 004°36'1413.5
2016-May-03 21:32N 53°46' E 004°20'1413.6
2016-May-03 20:32N 53°37' E 004°01'12513.6
2016-May-03 11:21N 51°44' E 002°33'1315.5
2016-May-03 10:31N 51°35' E 002°19'1414.9
2016-May-03 09:34N 51°22' E 002°10'1514.6
2016-May-03 08:34N 51°10' E 001°55'1515.4
2016-May-03 07:34N 51°02' E 001°35'5613.8
2016-May-03 03:31N 50°24' E 000°29'1414.5
2016-May-03 02:33N 50°21' E 000°08'1414.0
2016-May-03 01:34N 50°18' W 000°13'1313.4
2016-May-03 00:34N 50°14' W 000°33'1312.7
2016-May-02 23:32N 50°10' W 000°52'1212.1
2016-May-02 22:33N 50°07' W 001°11'2612.2
2016-May-02 20:27N 50°00' W 001°49'1313.3
2016-May-02 19:27N 49°57' W 002°09'1414.3
2016-May-02 18:28N 49°53' W 002°30'1314.8
2016-May-02 17:33N 49°50' W 002°50'1514.9
2016-May-02 16:33N 49°42' W 003°11'1514.9
2016-May-02 15:33N 49°35' W 003°31'4615.0
2016-May-02 12:29N 49°12' W 004°32'1415.2
2016-May-02 11:33N 49°05' W 004°51'1515.1
2016-May-02 10:33N 48°57' W 005°11'1514.9
2016-May-02 09:33N 48°49' W 005°30'1313.1
2016-May-02 08:33N 48°39' W 005°43'9613.2
2016-May-02 01:19N 47°15' W 006°48'48711.9
2016-Apr-30 08:13N 39°26' W 009°51'6 9.6
2016-Apr-30 07:33N 39°20' W 009°51'9 9.4
2016-Apr-30 06:34N 39°10' W 009°52'1010.1
2016-Apr-30 05:33N 39°00' W 009°52'1110.5
2016-Apr-30 04:33N 38°50' W 009°52'1111.6
2016-Apr-30 03:33N 38°38' W 009°48'1211.8
2016-Apr-30 02:34N 38°27' W 009°46'1212.4
2016-Apr-30 01:33N 38°15' W 009°42'1212.5
2016-Apr-30 00:34N 38°03' W 009°39'1312.6
2016-Apr-29 23:33N 37°50' W 009°35'1312.6
2016-Apr-29 22:33N 37°38' W 009°32'1312.9
2016-Apr-29 21:34N 37°25' W 009°29'1313.2
2016-Apr-29 20:32N 37°12' W 009°26'1313.1
2016-Apr-29 19:33N 36°60' W 009°22'1312.9
2016-Apr-29 18:32N 36°48' W 009°14'1413.2
2016-Apr-29 17:28N 36°42' W 008°58'4213.6
2016-Apr-29 14:22N 36°30' W 008°08'12614.0
2016-Apr-29 05:23N 35°58' W 005°37'1113.1
2016-Apr-29 04:33N 36°00' W 005°24'23013.5
2016-Apr-28 11:32N 36°60' W 000°48'4414.7
2016-Apr-28 08:33N 37°25' W 000°03'1613.9
2016-Apr-28 07:25N 37°39' E 000°07'13014.0
2016-Apr-27 22:06N 39°29' E 001°37'713.3
2016-Apr-27 21:33N 39°35' E 001°42'1313.0
2016-Apr-27 20:33N 39°44' E 001°53'1313.4
2016-Apr-27 19:33N 39°54' E 002°05'1414.0
2016-Apr-27 18:33N 40°05' E 002°17'1414.1
2016-Apr-27 17:33N 40°15' E 002°30'1414.4
2016-Apr-27 16:33N 40°24' E 002°44'1414.5
2016-Apr-27 15:33N 40°34' E 002°59'1514.5
2016-Apr-27 14:33N 40°43' E 003°13'1514.4
2016-Apr-27 13:32N 40°53' E 003°28'21414.0
2016-Apr-26 22:14N 43°09' E 007°11'1013.0
2016-Apr-26 21:30N 43°15' E 007°22'1412.0
2016-Apr-26 20:21N 43°24' E 007°36'911.6
2016-Apr-26 19:33N 43°30' E 007°46'3611.9
2016-Apr-26 16:33N 43°53' E 008°24'1312.6
2016-Apr-26 15:33N 44°01' E 008°37'1212.1
2016-Apr-26 14:34N 44°09' E 008°50'4 3.9
2016-Apr-26 13:34N 44°11' E 008°54'1 1.4
2016-Apr-26 12:34N 44°10' E 008°53'1 1.0
2016-Apr-26 11:34N 44°09' E 008°51'1 0.9
2016-Apr-26 10:34N 44°10' E 008°51'9 9.3
2016-Apr-26 09:34N 44°19' E 008°46'7 6.8
2016-Apr-26 08:33N 44°25' E 008°50'0 0.3
2016-Apr-26 07:30N 44°25' E 008°50'0 0.0
2016-Apr-26 06:33N 44°25' E 008°50'0 0.0
2016-Apr-26 05:33N 44°25' E 008°50'0 0.0
2016-Apr-26 04:27N 44°25' E 008°50'0 0.0
2016-Apr-26 03:27N 44°25' E 008°50'0 0.0
2016-Apr-26 02:30N 44°25' E 008°50'0 0.0
2016-Apr-26 01:30N 44°25' E 008°50'0 0.0
2016-Apr-26 00:33N 44°25' E 008°50'0 0.0
2016-Apr-25 23:33N 44°25' E 008°50'0 0.0
2016-Apr-25 22:33N 44°25' E 008°50'0 0.0
2016-Apr-25 21:30N 44°25' E 008°50'0 0.0
2016-Apr-25 20:30N 44°25' E 008°50'0 0.0
2016-Apr-25 19:30N 44°25' E 008°50'0 0.0
2016-Apr-25 18:33N 44°25' E 008°50'0 0.0
2016-Apr-25 17:33N 44°25' E 008°50'0 0.0
2016-Apr-25 16:33N 44°25' E 008°50'0 0.0
2016-Apr-25 15:27N 44°25' E 008°50'0 0.0
2016-Apr-25 14:24N 44°25' E 008°50'0 0.0
2016-Apr-25 13:30N 44°25' E 008°50'0 0.0
2016-Apr-25 12:33N 44°25' E 008°50'0 0.0
2016-Apr-25 11:33N 44°25' E 008°50'0 0.0
2016-Apr-25 10:33N 44°25' E 008°50'0 0.0
2016-Apr-25 09:30N 44°25' E 008°50'0 0.0
2016-Apr-25 08:30N 44°25' E 008°50'0 0.0
2016-Apr-25 07:24N 44°25' E 008°50'0 0.0
2016-Apr-25 06:33N 44°25' E 008°50'0 0.0
2016-Apr-25 05:33N 44°25' E 008°50'0 0.0
2016-Apr-25 04:33N 44°25' E 008°50'0 0.0
2016-Apr-25 03:30N 44°25' E 008°50'0 0.0
2016-Apr-25 02:30N 44°25' E 008°50'0 0.0
2016-Apr-25 01:30N 44°25' E 008°50'0 0.0
2016-Apr-24 23:33N 44°25' E 008°50'0 0.0
2016-Apr-24 22:33N 44°25' E 008°50'0 0.0
2016-Apr-24 20:30N 44°25' E 008°50'0 0.0
2016-Apr-24 19:30N 44°25' E 008°50'0 0.0
2016-Apr-24 18:24N 44°25' E 008°50'0 0.0
2016-Apr-24 17:30N 44°25' E 008°50'0 0.0
2016-Apr-24 16:30N 44°25' E 008°50'0 0.0
2016-Apr-24 15:33N 44°25' E 008°50'  

Dump ship's entire track history